Time;durP1;ratioP1;P1;durP2;ratioP2;P2;SDS_P1;SDS_P2;PMS_P1;PMS_P2;Temp;Humidity;BMP_temperature;BMP_pressure;BME280_temperature;BME280_humidity;BME280_pressure;Samples;Min_cycle;Max_cycle;Signal;HPM_P1;HPM_P2
2022/07/22 00:00:32;;;;;;;6.88;6.57;;;;;;;16.33;100.00;101632.16;6050564;23;20032;-74
2022/07/22 00:02:59;;;;;;;4.93;4.72;;;;;;;16.75;100.00;101711.78;6007647;23;20019;-74
2022/07/22 00:05:26;;;;;;;7.00;6.60;;;;;;;16.74;100.00;101707.44;6051235;23;20056;-75
2022/07/22 00:07:52;;;;;;;5.30;5.00;;;;;;;16.42;100.00;101667.03;6037722;23;20026;-73
2022/07/22 00:10:19;;;;;;;5.47;5.28;;;;;;;16.24;100.00;101659.25;6053470;23;20506;-73
2022/07/22 00:12:45;;;;;;;5.47;5.18;;;;;;;16.65;100.00;101711.47;6034778;23;20011;-74
2022/07/22 00:15:12;;;;;;;5.40;5.20;;;;;;;16.63;100.00;101728.44;6056867;23;20117;-74
2022/07/22 00:17:39;;;;;;;5.40;5.10;;;;;;;16.61;100.00;101715.28;6011775;23;20022;-74
2022/07/22 00:20:06;;;;;;;5.47;5.25;;;;;;;16.03;100.00;101624.31;6056745;23;20029;-74
2022/07/22 00:22:33;;;;;;;6.65;6.35;;;;;;;15.47;100.00;101522.66;6027096;23;20541;-74
2022/07/22 00:24:59;;;;;;;4.97;4.78;;;;;;;16.62;100.00;101717.00;6054967;23;20185;-74
2022/07/22 00:27:26;;;;;;;6.10;5.80;;;;;;;16.31;100.00;101662.34;6049082;23;20373;-74
2022/07/22 00:29:52;;;;;;;5.20;5.00;;;;;;;16.24;100.00;101659.25;6027689;23;20021;-74
2022/07/22 00:32:19;;;;;;;5.88;5.63;;;;;;;16.44;100.00;101694.28;6054765;23;20032;-74
2022/07/22 00:34:47;;;;;;;5.70;5.30;;;;;;;16.45;100.00;101691.50;6025167;23;20078;-74
2022/07/22 00:37:13;;;;;;;5.35;5.15;;;;;;;16.03;100.00;101623.47;6065157;23;20022;-74
2022/07/22 00:39:40;;;;;;;5.80;5.50;;;;;;;16.53;100.00;101701.63;6051092;23;20478;-74
2022/07/22 00:42:06;;;;;;;5.72;5.43;;;;;;;16.09;100.00;101633.69;6039035;23;20324;-74
2022/07/22 00:44:34;;;;;;;6.20;5.90;;;;;;;16.51;100.00;101708.84;6058693;23;20014;-74
2022/07/22 00:47:06;;;;;;;5.15;4.95;;;;;;;15.97;100.00;101629.97;6030665;23;20031;-74
2022/07/22 00:49:32;;;;;;;5.22;5.03;;;;;;;16.48;100.00;101704.59;6036663;23;20025;-74
2022/07/22 00:51:59;;;;;;;5.40;5.20;;;;;;;16.49;100.00;101700.13;6053849;23;20029;-73
2022/07/22 00:54:25;;;;;;;6.55;6.25;;;;;;;16.43;100.00;101698.69;6058746;23;20028;-74
2022/07/22 00:56:51;;;;;;;5.10;4.90;;;;;;;16.44;100.00;101710.16;6052235;23;20014;-73
2022/07/22 00:59:18;;;;;;;5.63;5.32;;;;;;;16.46;100.00;101697.69;6057288;23;20033;-74
2022/07/22 01:01:45;;;;;;;5.30;5.10;;;;;;;15.34;100.00;101527.84;6050920;23;20083;-73
2022/07/22 01:04:12;;;;;;;5.47;5.20;;;;;;;16.25;100.00;101671.53;6057733;23;20083;-73
2022/07/22 01:06:44;;;;;;;6.07;5.78;;;;;;;15.98;100.00;101630.84;6050412;23;20038;-74
2022/07/22 01:09:12;;;;;;;5.60;5.30;;;;;;;16.40;100.00;101692.72;6059879;23;20021;-74
2022/07/22 01:11:40;;;;;;;5.20;5.00;;;;;;;16.40;100.00;101695.38;6051655;23;20022;-74
2022/07/22 01:14:07;;;;;;;5.18;4.97;;;;;;;15.97;100.00;101635.25;6035936;23;20025;-74
2022/07/22 01:16:33;;;;;;;6.10;5.80;;;;;;;15.96;100.00;101630.94;6053343;23;20606;-73
2022/07/22 01:19:00;;;;;;;5.30;5.10;;;;;;;16.39;100.00;101693.69;6050683;23;20488;-73
2022/07/22 01:21:27;;;;;;;6.30;6.00;;;;;;;16.02;100.00;101643.78;6031152;23;20393;-73
2022/07/22 01:23:53;;;;;;;5.50;5.20;;;;;;;16.34;100.00;101693.97;6023930;23;20014;-74
2022/07/22 01:26:20;;;;;;;6.15;5.88;;;;;;;16.14;100.00;101658.09;6029370;23;20015;-73
2022/07/22 01:28:46;;;;;;;23.92;22.73;;;;;;;15.27;100.00;101516.75;5882457;23;21010;-74
2022/07/22 01:31:13;;;;;;;5.35;5.15;;;;;;;16.23;100.00;101675.22;6005412;23;20089;-74
2022/07/22 01:33:40;;;;;;;5.25;4.95;;;;;;;16.24;100.00;101667.19;6059889;23;20014;-74
2022/07/22 01:36:07;;;;;;;5.40;5.13;;;;;;;15.79;100.00;101591.38;6050696;23;20456;-75
2022/07/22 01:38:33;;;;;;;6.47;6.18;;;;;;;16.00;100.00;101613.06;6029713;23;20592;-74
2022/07/22 01:41:00;;;;;;;5.30;5.10;;;;;;;15.77;100.00;101583.50;6052743;23;20021;-75
2022/07/22 01:43:26;;;;;;;5.20;5.00;;;;;;;15.88;100.00;101594.31;6062187;23;20616;-74
2022/07/22 01:45:53;;;;;;;5.47;5.18;;;;;;;16.22;100.00;101657.63;6042783;23;20010;-73
2022/07/22 01:48:21;;;;;;;6.45;6.15;;;;;;;16.37;100.00;101682.34;6077103;23;20440;-74
2022/07/22 01:50:48;;;;;;;5.32;5.13;;;;;;;15.97;100.00;101618.53;6086371;23;20572;-74
2022/07/22 01:53:14;;;;;;;5.30;5.10;;;;;;;15.73;100.00;101596.06;6090289;23;20021;-74
2022/07/22 01:55:42;;;;;;;5.50;5.30;;;;;;;16.33;100.00;101671.91;6080050;23;20049;-74
2022/07/22 01:58:08;;;;;;;4.88;4.68;;;;;;;16.23;100.00;101667.28;6062675;23;20622;-76
2022/07/22 02:00:35;;;;;;;6.78;6.47;;;;;;;16.04;100.00;101626.03;6073259;23;20506;-74
2022/07/22 02:03:02;;;;;;;5.07;4.88;;;;;;;16.29;100.00;101670.38;6054845;23;20696;-73
2022/07/22 02:05:29;;;;;;;6.50;6.20;;;;;;;16.14;100.00;101645.69;6063169;23;20025;-74
2022/07/22 02:08:00;;;;;;;5.20;5.00;;;;;;;16.38;100.00;101687.53;6041336;23;20034;-74
2022/07/22 02:10:27;;;;;;;6.90;6.60;;;;;;;16.42;100.00;101670.50;6058944;23;20058;-74
2022/07/22 02:12:53;;;;;;;5.25;5.05;;;;;;;16.46;100.00;101681.78;6070264;23;20022;-74
2022/07/22 02:15:20;;;;;;;5.40;5.20;;;;;;;16.04;100.00;101602.19;6087470;23;20018;-75
2022/07/22 02:17:46;;;;;;;5.18;4.97;;;;;;;16.36;100.00;101660.28;6058712;23;20039;-73
2022/07/22 02:20:13;;;;;;;5.30;5.10;;;;;;;16.17;100.00;101614.69;6085368;23;20029;-74
2022/07/22 02:22:40;;;;;;;5.93;5.63;;;;;;;16.15;100.00;101631.50;6049274;23;21480;-74
2022/07/22 02:25:06;;;;;;;5.75;5.50;;;;;;;15.62;100.00;101557.97;6079400;23;20029;-74
2022/07/22 02:27:33;;;;;;;6.97;6.60;;;;;;;16.33;100.00;101674.56;6071306;23;20030;-74
2022/07/22 02:30:00;;;;;;;5.68;5.38;;;;;;;15.39;100.00;101517.81;6081118;23;20021;-75
2022/07/22 02:32:26;;;;;;;5.88;5.35;;;;;;;16.37;100.00;101672.56;6082077;23;20026;-74
2022/07/22 02:34:53;;;;;;;5.65;5.35;;;;;;;16.38;100.00;101673.41;6057432;23;20639;-73
2022/07/22 02:37:19;;;;;;;5.90;5.63;;;;;;;14.62;100.00;101390.16;6060186;23;20046;-73
2022/07/22 02:39:46;;;;;;;5.28;5.07;;;;;;;16.37;100.00;101675.22;6056290;23;20029;-74
2022/07/22 02:42:12;;;;;;;6.45;6.10;;;;;;;15.97;100.00;101624.66;6053576;23;20042;-74
2022/07/22 02:44:39;;;;;;;5.88;5.57;;;;;;;16.15;100.00;101644.75;6059921;23;20786;-74
2022/07/22 02:47:05;;;;;;;5.07;4.88;;;;;;;15.80;100.00;101625.69;6060596;23;20026;-74
2022/07/22 02:49:32;;;;;;;6.82;6.45;;;;;;;16.28;100.00;101674.00;6028513;23;20022;-74
2022/07/22 02:51:58;;;;;;;6.63;6.22;;;;;;;15.85;100.00;101609.53;6054771;23;20519;-74
2022/07/22 02:54:25;;;;;;;6.82;6.53;;;;;;;15.95;100.00;101640.63;6059067;23;20010;-75
2022/07/22 02:56:51;;;;;;;5.85;5.55;;;;;;;16.29;100.00;101673.03;6057966;23;20022;-74
2022/07/22 02:59:17;;;;;;;5.43;5.13;;;;;;;15.95;100.00;101611.53;6032884;23;20024;-74
2022/07/22 03:01:44;;;;;;;5.15;4.95;;;;;;;15.12;100.00;101483.31;6060205;23;20561;-74
2022/07/22 03:04:10;;;;;;;5.40;5.20;;;;;;;15.89;100.00;101627.78;6032967;23;20025;-75
2022/07/22 03:06:37;;;;;;;6.53;6.20;;;;;;;16.22;100.00;101679.66;6052638;23;20028;-73
2022/07/22 03:09:04;;;;;;;4.95;4.75;;;;;;;16.12;100.00;101668.78;6036769;23;20578;-74
2022/07/22 03:11:30;;;;;;;6.45;6.15;;;;;;;16.15;100.00;101678.31;6052886;23;20033;-75
2022/07/22 03:13:57;;;;;;;5.05;4.85;;;;;;;15.93;100.00;101644.34;6061172;23;20466;-73
2022/07/22 03:16:24;;;;;;;6.53;6.22;;;;;;;16.14;100.00;101684.59;6025432;23;20038;-74
2022/07/22 03:18:50;;;;;;;5.60;5.40;;;;;;;15.79;100.00;101631.91;6042428;23;20010;-75
2022/07/22 03:21:16;;;;;;;5.55;5.25;;;;;;;15.55;100.00;101597.13;6049997;23;20032;-74
2022/07/22 03:23:43;;;;;;;4.90;4.70;;;;;;;15.68;100.00;101629.03;6064903;23;20025;-74
2022/07/22 03:26:09;;;;;;;6.63;6.32;;;;;;;15.96;100.00;101673.28;6053479;23;20058;-74
2022/07/22 03:28:36;;;;;;;6.30;6.00;;;;;;;15.42;100.00;101575.00;6060649;23;20022;-74
2022/07/22 03:31:02;;;;;;;6.47;6.18;;;;;;;15.97;100.00;101682.06;6054213;23;20029;-74
2022/07/22 03:33:29;;;;;;;6.47;6.18;;;;;;;15.73;100.00;101654.28;6057759;23;20530;-75
2022/07/22 03:35:55;;;;;;;5.28;5.07;;;;;;;15.51;100.00;101614.97;6065382;23;20077;-76
2022/07/22 03:38:22;;;;;;;6.15;5.85;;;;;;;15.13;100.00;101557.25;6052214;23;20030;-73
2022/07/22 03:40:49;;;;;;;5.20;4.97;;;;;;;15.93;100.00;101676.94;6058218;23;20013;-76
2022/07/22 03:43:15;;;;;;;5.30;5.05;;;;;;;15.95;100.00;101683.00;6057969;23;20022;-75
2022/07/22 03:45:41;;;;;;;5.20;5.00;;;;;;;15.93;100.00;101676.94;6055831;23;20017;-73
2022/07/22 03:48:08;;;;;;;5.22;5.03;;;;;;;15.65;100.00;101626.56;6062936;23;20642;-73
2022/07/22 03:50:34;;;;;;;5.28;5.07;;;;;;;15.93;100.00;101676.09;6056078;23;20037;-73
2022/07/22 03:53:01;;;;;;;5.20;5.00;;;;;;;15.59;100.00;101616.34;6060830;23;20032;-74
2022/07/22 03:55:27;;;;;;;5.05;4.85;;;;;;;15.70;100.00;101637.75;6065080;23;20022;-74
2022/07/22 03:57:53;;;;;;;5.13;4.93;;;;;;;15.97;100.00;101676.78;6057851;23;20029;-74
2022/07/22 04:00:20;;;;;;;5.20;5.00;;;;;;;15.94;100.00;101664.59;6058016;23;20018;-72
2022/07/22 04:02:46;;;;;;;5.30;5.03;;;;;;;15.81;100.00;101645.06;6055153;23;20365;-73
2022/07/22 04:05:13;;;;;;;5.22;4.93;;;;;;;15.78;100.00;101634.69;6060584;23;20099;-72
2022/07/22 04:07:39;;;;;;;5.05;4.85;;;;;;;16.01;100.00;101670.34;6027391;23;20033;-73
2022/07/22 04:10:06;;;;;;;5.07;4.88;;;;;;;15.56;100.00;101588.28;6058825;23;20018;-72
2022/07/22 04:12:39;;;;;;;6.47;6.18;;;;;;;16.01;100.00;101680.94;6050608;23;20037;-72
2022/07/22 04:15:07;;;;;;;5.22;5.03;;;;;;;15.83;100.00;101641.38;6056042;23;20022;-72
2022/07/22 04:17:34;;;;;;;6.93;6.55;;;;;;;16.01;100.00;101676.50;6060388;23;20028;-72
2022/07/22 04:20:01;;;;;;;5.30;5.10;;;;;;;15.84;100.00;101645.75;6052806;23;20518;-72
2022/07/22 04:22:28;;;;;;;6.30;6.00;;;;;;;16.01;100.00;101673.84;6025874;23;20027;-72
2022/07/22 04:24:54;;;;;;;5.10;4.90;;;;;;;15.99;100.00;101681.03;6056896;23;20018;-73
2022/07/22 04:27:23;;;;;;;7.47;7.13;;;;;;;15.58;100.00;101601.41;6035591;23;20010;-72
2022/07/22 04:29:50;;;;;;;5.15;4.95;;;;;;;16.04;100.00;101667.53;6056027;23;20011;-72
2022/07/22 04:32:16;;;;;;;5.20;5.00;;;;;;;15.87;100.00;101627.00;6058098;23;20014;-72
2022/07/22 04:34:43;;;;;;;5.40;5.10;;;;;;;15.49;100.00;101584.28;6058094;23;20233;-72
2022/07/22 04:37:09;;;;;;;5.47;5.28;;;;;;;16.13;100.00;101665.16;6057597;23;20413;-72
2022/07/22 04:39:35;;;;;;;6.45;6.15;;;;;;;16.15;100.00;101670.38;6051892;23;20018;-72
2022/07/22 04:42:02;;;;;;;5.40;5.20;;;;;;;15.48;100.00;101551.69;6009411;23;20022;-72
2022/07/22 04:44:29;;;;;;;7.50;7.10;;;;;;;16.18;100.00;101667.56;6061387;23;20018;-72
2022/07/22 04:46:55;;;;;;;4.88;4.68;;;;;;;15.89;100.00;101625.13;6072474;23;20029;-72
2022/07/22 04:49:22;;;;;;;5.82;5.57;;;;;;;16.12;100.00;101660.00;6083105;23;20026;-72
2022/07/22 04:51:48;;;;;;;4.95;4.75;;;;;;;16.20;100.00;101665.66;6061740;23;20030;-73
2022/07/22 04:54:15;;;;;;;5.00;4.70;;;;;;;15.99;100.00;101625.44;6085678;23;20025;-72
2022/07/22 04:56:41;;;;;;;5.07;4.88;;;;;;;16.20;100.00;101657.72;6057289;23;20017;-72
2022/07/22 04:59:10;;;;;;;5.20;5.00;;;;;;;16.26;100.00;101672.41;6072358;23;20755;-72
2022/07/22 05:01:37;;;;;;;5.68;5.35;;;;;;;16.28;100.00;101674.00;6072057;23;20029;-72
2022/07/22 05:04:04;;;;;;;5.47;5.18;;;;;;;16.21;100.00;101653.28;6079146;23;20030;-71
2022/07/22 05:06:30;;;;;;;6.80;6.35;;;;;;;16.27;100.00;101679.38;6083722;23;20041;-73
2022/07/22 05:08:57;;;;;;;5.43;5.13;;;;;;;16.28;100.00;101681.09;6053157;23;20045;-72
2022/07/22 05:11:24;;;;;;;6.30;6.00;;;;;;;15.99;100.00;101616.66;6079385;23;20071;-72
2022/07/22 05:13:50;;;;;;;5.20;5.00;;;;;;;16.05;100.00;101624.22;6069132;23;20100;-71
2022/07/22 05:16:17;;;;;;;5.38;5.07;;;;;;;16.23;100.00;101651.38;6075140;23;20021;-72
2022/07/22 05:18:43;;;;;;;5.40;5.20;;;;;;;16.38;100.00;101679.59;6064216;23;20545;-72
2022/07/22 05:21:10;;;;;;;5.20;5.00;;;;;;;16.38;100.00;101674.28;6055351;23;20030;-72
2022/07/22 05:23:37;;;;;;;5.97;5.68;;;;;;;16.35;100.00;101677.13;6078492;23;20018;-72
2022/07/22 05:26:06;;;;;;;8.27;4.97;;;;;;;16.33;100.00;101674.56;6057802;23;20046;-73
2022/07/22 05:28:33;;;;;;;7.25;6.85;;;;;;;16.34;100.00;101670.13;6061368;23;20025;-72
2022/07/22 05:31:01;;;;;;;5.63;5.32;;;;;;;16.08;100.00;101621.41;6056718;23;20080;-73
2022/07/22 05:33:28;;;;;;;6.47;6.18;;;;;;;16.33;100.00;101674.56;6083587;23;20034;-72
2022/07/22 05:35:54;;;;;;;5.50;5.20;;;;;;;16.40;100.00;101675.06;6067336;23;20021;-72
2022/07/22 05:38:21;;;;;;;5.68;5.43;;;;;;;16.02;100.00;101621.78;6080961;23;20025;-72
2022/07/22 05:40:47;;;;;;;5.18;4.97;;;;;;;16.23;100.00;101678.72;6044433;23;20013;-73
2022/07/22 05:43:14;;;;;;;6.00;4.85;;;;;;;16.13;100.00;101669.63;6083619;23;20568;-71
2022/07/22 05:45:40;;;;;;;5.20;5.00;;;;;;;16.06;100.00;101670.94;6078363;23;20024;-72
2022/07/22 05:48:06;;;;;;;5.10;4.90;;;;;;;16.07;100.00;101677.94;6060787;23;20045;-71
2022/07/22 05:50:33;;;;;;;6.82;6.43;;;;;;;16.06;100.00;101678.88;6081995;23;21040;-72
2022/07/22 05:52:59;;;;;;;4.78;4.57;;;;;;;15.84;100.00;101645.75;6083111;23;20031;-72
2022/07/22 05:55:26;;;;;;;6.85;6.55;;;;;;;16.05;100.00;101664.78;6055986;23;20092;-73
2022/07/22 05:57:52;;;;;;;5.28;5.07;;;;;;;15.68;100.00;101614.00;6079537;23;20021;-72
2022/07/22 06:00:19;;;;;;;5.68;5.43;;;;;;;16.17;100.00;101686.19;6076447;23;20023;-73
2022/07/22 06:02:45;;;;;;;4.93;4.72;;;;;;;16.16;100.00;101666.81;6084611;23;20025;-73
2022/07/22 06:05:14;;;;;;;5.00;4.80;;;;;;;16.14;100.00;101658.94;6083656;23;20022;-72
2022/07/22 06:08:00;;;;;;;5.20;5.00;;;;;;;16.27;100.00;101666.13;6060057;23;20037;-73
2022/07/22 06:10:27;;;;;;;6.72;6.43;;;;;;;16.00;100.00;101608.63;6075209;23;20030;-71
2022/07/22 06:12:53;;;;;;;4.93;4.72;;;;;;;16.47;100.00;101672.88;6056581;23;20014;-72
2022/07/22 06:15:20;;;;;;;5.43;5.20;;;;;;;16.51;100.00;101661.13;6060166;23;20014;-72
2022/07/22 06:17:46;;;;;;;5.05;4.85;;;;;;;15.97;100.00;101592.91;6038508;23;20545;-72
2022/07/22 06:20:12;;;;;;;5.05;4.85;;;;;;;16.16;100.00;101619.13;6072720;23;20017;-72
2022/07/22 06:22:40;;;;;;;5.70;5.50;;;;;;;16.49;100.00;101679.78;6062186;23;20506;-71
2022/07/22 06:25:08;;;;;;;5.03;4.82;;;;;;;16.37;100.00;101647.88;6051047;23;20030;-71
2022/07/22 06:27:54;;;;;;;5.00;4.80;;;;;;;16.60;100.00;101668.53;6027002;23;20101;-72
2022/07/22 06:30:21;;;;;;;7.55;7.18;;;;;;;16.39;100.00;101587.72;6065049;23;20093;-72
2022/07/22 06:32:47;;;;;;;5.70;5.40;;;;;;;16.99;100.00;101666.97;6043058;23;20014;-72
2022/07/22 06:35:21;;;;;;;6.07;5.72;;;;;;;16.94;100.00;101664.63;6051498;23;20022;-72
2022/07/22 06:37:48;;;;;;;5.28;5.03;;;;;;;17.03;100.00;101662.34;6049468;23;20089;-72
2022/07/22 06:40:30;;;;;;;7.38;6.80;;;;;;;17.11;100.00;101658.25;6066616;23;20058;-72
2022/07/22 06:42:57;;;;;;;5.53;5.22;;;;;;;16.68;100.00;101581.44;6049403;23;20074;-72
2022/07/22 06:45:24;;;;;;;6.85;6.45;;;;;;;16.84;100.00;101637.00;5992497;23;20063;-71
2022/07/22 06:47:50;;;;;;;5.78;5.47;;;;;;;16.97;100.00;101668.88;6052081;23;20026;-72
2022/07/22 06:50:17;;;;;;;5.32;5.13;;;;;;;16.94;100.00;101669.09;6044182;23;20022;-73
2022/07/22 06:52:43;;;;;;;5.20;5.00;;;;;;;16.46;100.00;101597.00;6046126;23;21695;-72
2022/07/22 06:55:10;;;;;;;5.25;5.03;;;;;;;16.67;100.00;101651.28;6021681;23;20033;-72
2022/07/22 06:57:37;;;;;;;5.50;5.30;;;;;;;16.51;100.00;101597.53;6043766;23;20007;-72
2022/07/22 07:00:07;;;;;;;5.40;5.20;;;;;;;16.72;100.00;101620.03;6052530;23;20041;-71
2022/07/22 07:02:33;;;;;;;5.40;5.10;;;;;;;16.93;100.00;101672.69;6036455;23;20030;-71
2022/07/22 07:05:00;;;;;;;5.13;4.93;;;;;;;16.52;100.00;101601.91;6053848;23;20531;-72
2022/07/22 07:07:27;;;;;;;6.88;6.57;;;;;;;16.70;100.00;101600.75;6038205;23;20024;-72
2022/07/22 07:09:53;;;;;;;5.30;5.10;;;;;;;16.92;100.00;101639.19;6031664;23;20029;-72
2022/07/22 07:12:20;;;;;;;6.10;5.80;;;;;;;16.82;99.35;101619.47;6039458;23;20018;-72
2022/07/22 07:14:47;;;;;;;5.78;5.47;;;;;;;17.15;100.00;101669.50;6048040;23;20022;-71
2022/07/22 07:17:33;;;;;;;6.68;6.38;;;;;;;17.01;99.08;101643.88;6034902;23;20403;-72
2022/07/22 07:20:00;;;;;;;5.30;5.10;;;;;;;17.12;99.50;101667.06;6051878;23;20109;-72
2022/07/22 07:22:26;;;;;;;7.55;7.05;;;;;;;16.87;98.79;101598.84;6043454;23;20029;-72
2022/07/22 07:24:53;;;;;;;5.75;5.45;;;;;;;17.47;99.37;101659.44;6049706;23;20030;-72
2022/07/22 07:27:19;;;;;;;5.45;5.22;;;;;;;17.59;97.17;101655.13;6043380;23;20007;-72
2022/07/22 07:29:46;;;;;;;5.72;5.43;;;;;;;16.93;95.24;101561.31;6049022;23;20031;-72
2022/07/22 07:32:13;;;;;;;5.47;5.28;;;;;;;16.43;95.57;101464.69;6047409;23;20034;-71
2022/07/22 07:34:39;;;;;;;5.93;5.63;;;;;;;17.34;94.63;101632.88;6044252;23;20026;-72
2022/07/22 07:37:06;;;;;;;6.00;5.70;;;;;;;17.27;94.65;101609.50;6048663;23;20218;-71
2022/07/22 07:39:32;;;;;;;6.32;6.03;;;;;;;17.24;96.55;101601.72;6044471;23;20014;-72
2022/07/22 07:41:59;;;;;;;5.40;5.20;;;;;;;17.48;96.08;101660.28;6042175;23;20085;-72
2022/07/22 07:44:25;;;;;;;8.18;7.55;;;;;;;17.00;96.47;101604.19;6046921;23;20015;-73
2022/07/22 07:46:52;;;;;;;5.00;4.80;;;;;;;17.36;96.72;101627.47;6024916;23;20007;-70
2022/07/22 07:49:18;;;;;;;5.85;5.55;;;;;;;17.59;95.62;101654.28;6054098;23;20029;-71
2022/07/22 07:51:45;;;;;;;5.20;5.00;;;;;;;17.71;94.59;101656.13;6055544;23;20070;-70
2022/07/22 07:54:12;;;;;;;5.45;5.20;;;;;;;17.71;93.15;101648.16;6055529;23;20209;-70
2022/07/22 07:56:42;;;;;;;5.43;5.13;;;;;;;17.41;93.14;101566.13;6060536;23;20010;-70
2022/07/22 07:59:09;;;;;;;5.25;5.05;;;;;;;17.99;94.53;101660.44;6056232;23;20562;-69
2022/07/22 08:01:54;;;;;;;5.20;5.00;;;;;;;17.60;93.13;101587.84;6053242;23;20656;-70
2022/07/22 08:04:25;;;;;;;6.68;6.38;;;;;;;18.09;92.48;101663.31;6036685;23;20298;-70
2022/07/22 08:07:05;;;;;;;5.70;5.40;;;;;;;18.06;92.03;101666.19;6051861;23;20053;-70
2022/07/22 08:09:32;;;;;;;6.85;6.55;;;;;;;17.97;92.27;101654.38;6025678;23;20018;-70
2022/07/22 08:11:59;;;;;;;5.60;5.30;;;;;;;17.81;91.77;101611.22;6055559;23;20026;-71
2022/07/22 08:14:25;;;;;;;6.72;6.43;;;;;;;17.90;92.86;101631.84;6022083;23;20394;-71
2022/07/22 08:16:52;;;;;;;5.55;5.35;;;;;;;18.11;91.76;101651.63;6034097;23;20021;-71
2022/07/22 08:19:20;;;;;;;5.40;5.18;;;;;;;17.73;92.63;101582.53;6019351;23;20221;-71
2022/07/22 08:21:46;;;;;;;5.50;5.30;;;;;;;17.81;91.96;101612.06;6020007;23;20011;-70
2022/07/22 08:24:13;;;;;;;5.82;5.55;;;;;;;18.08;91.52;101651.84;6049668;23;20034;-70
2022/07/22 08:26:39;;;;;;;6.07;5.78;;;;;;;18.23;91.03;101654.41;6017786;23;20419;-70
2022/07/22 08:29:09;;;;;;;5.90;5.60;;;;;;;18.06;90.19;101611.28;6054141;23;20022;-71
2022/07/22 08:31:36;;;;;;;6.30;6.00;;;;;;;18.16;89.46;101619.41;6029668;23;20398;-72
2022/07/22 08:34:05;;;;;;;5.05;4.85;;;;;;;18.38;88.54;101656.00;6019342;23;20192;-70
2022/07/22 08:36:32;;;;;;;5.78;5.47;;;;;;;18.23;86.19;101673.84;6055345;23;20534;-70
2022/07/22 08:38:58;;;;;;;5.75;5.45;;;;;;;18.42;87.48;101664.59;6039073;23;20010;-70
2022/07/22 08:41:26;;;;;;;7.53;7.10;;;;;;;18.50;87.43;101662.25;6018442;23;20547;-72
2022/07/22 08:43:53;;;;;;;6.13;5.78;;;;;;;18.46;87.33;101663.41;6056854;23;20077;-72
2022/07/22 08:46:20;;;;;;;6.13;5.85;;;;;;;18.44;86.17;101658.22;6049862;23;20109;-70
2022/07/22 08:48:47;;;;;;;5.88;5.57;;;;;;;18.89;85.13;101653.28;6043709;23;20412;-71
2022/07/22 08:51:15;;;;;;;5.85;5.55;;;;;;;19.07;85.23;101661.75;6023099;23;20468;-70
2022/07/22 08:53:41;;;;;;;5.63;5.43;;;;;;;17.89;83.84;101482.28;6011635;23;20454;-70
2022/07/22 08:56:08;;;;;;;5.60;5.30;;;;;;;18.97;82.63;101666.03;6039006;23;20128;-71
2022/07/22 08:58:34;;;;;;;7.30;6.93;;;;;;;19.33;82.82;101662.47;6011701;23;20011;-71
2022/07/22 09:01:10;;;;;;;5.72;5.43;;;;;;;19.56;80.53;101653.75;6051025;23;20105;-71
2022/07/22 09:03:46;;;;;;;6.15;5.85;;;;;;;19.22;79.77;101622.50;6035544;23;20080;-70
2022/07/22 09:06:13;;;;;;;6.03;5.72;;;;;;;19.88;78.79;101643.34;6051592;23;20090;-70
2022/07/22 09:09:03;;;;;;;6.00;5.60;;;;;;;20.13;78.47;101632.50;6027830;23;20408;-71
2022/07/22 09:11:37;;;;;;;6.15;5.80;;;;;;;20.36;78.52;101635.16;6038879;23;20010;-70
2022/07/22 09:14:04;;;;;;;5.65;5.40;;;;;;;20.02;75.96;101595.16;6022504;23;20019;-70
2022/07/22 09:16:46;;;;;;;7.05;6.65;;;;;;;20.22;76.21;101624.75;6018403;23;20041;-71
2022/07/22 09:19:14;;;;;;;6.30;6.00;;;;;;;19.54;76.83;101587.28;6021015;23;20083;-70
2022/07/22 09:21:45;;;;;;;6.30;5.95;;;;;;;20.18;78.12;101644.63;6018157;23;20436;-72
2022/07/22 09:24:30;;;;;;;6.25;5.85;;;;;;;20.18;76.68;101626.78;6045529;23;20020;-72
2022/07/22 09:26:57;;;;;;;5.47;5.25;;;;;;;19.95;77.78;101657.91;6039791;23;20010;-70
2022/07/22 09:29:24;;;;;;;6.75;6.22;;;;;;;20.22;78.96;101643.41;6050090;23;20459;-71
2022/07/22 09:32:01;;;;;;;5.47;5.28;;;;;;;20.39;78.76;101644.78;6045873;23;20084;-71
2022/07/22 09:34:34;;;;;;;7.50;7.10;;;;;;;20.41;75.78;101650.81;6045802;23;20029;-71
2022/07/22 09:37:00;;;;;;;5.85;5.55;;;;;;;20.35;75.19;101589.97;5989339;23;20025;-71
2022/07/22 09:39:29;;;;;;;7.82;7.43;;;;;;;20.56;73.89;101652.25;6042366;23;20260;-71
2022/07/22 09:42:01;;;;;;;6.30;6.00;;;;;;;20.63;75.08;101647.34;6020532;23;20030;-71
2022/07/22 09:44:27;;;;;;;7.77;7.37;;;;;;;21.01;75.23;101640.75;6021446;23;20531;-71
2022/07/22 09:46:54;;;;;;;6.00;5.70;;;;;;;20.83;73.13;101640.41;6047007;23;20288;-71
2022/07/22 09:49:32;;;;;;;6.50;6.13;;;;;;;20.31;74.25;101598.22;6043116;23;20022;-71
2022/07/22 09:52:00;;;;;;;6.38;5.88;;;;;;;20.53;73.64;101647.19;6044367;23;20014;-72
2022/07/22 09:54:28;;;;;;;6.93;6.63;;;;;;;20.25;74.33;101577.38;6041025;23;20265;-70
2022/07/22 09:56:55;;;;;;;6.00;5.60;;;;;;;20.50;75.04;101663.41;6022799;23;20027;-71
2022/07/22 09:59:22;;;;;;;6.78;6.47;;;;;;;20.37;74.28;101652.03;6027288;23;20358;-71
2022/07/22 10:01:54;;;;;;;6.40;6.00;;;;;;;19.95;74.96;101627.75;6017295;23;20069;-71
2022/07/22 10:04:24;;;;;;;7.07;6.68;;;;;;;19.74;74.81;101625.75;6047922;23;20034;-70
2022/07/22 10:06:51;;;;;;;6.05;5.75;;;;;;;20.06;74.51;101652.59;6050189;23;20508;-71
2022/07/22 10:09:19;;;;;;;6.10;5.80;;;;;;;20.27;75.31;101631.41;6054666;23;20475;-72
2022/07/22 10:11:46;;;;;;;6.90;6.40;;;;;;;19.83;73.75;101558.47;6056717;23;20030;-72
2022/07/22 10:14:17;;;;;;;5.97;5.63;;;;;;;20.47;73.84;101627.19;6046116;23;20022;-71
2022/07/22 10:16:48;;;;;;;6.18;5.78;;;;;;;20.72;71.83;101636.75;6007656;23;20178;-71
2022/07/22 10:19:15;;;;;;;6.50;6.00;;;;;;;20.51;72.82;101617.97;6045588;23;20081;-70
2022/07/22 10:21:43;;;;;;;6.15;5.80;;;;;;;20.53;71.47;101600.03;6025720;23;20307;-71
2022/07/22 10:24:14;;;;;;;6.80;6.30;;;;;;;20.98;69.90;101615.13;6028987;23;20011;-70
2022/07/22 10:26:47;;;;;;;7.00;6.60;;;;;;;21.27;71.08;101606.56;6053114;23;20026;-71
2022/07/22 10:29:23;;;;;;;6.32;5.93;;;;;;;21.10;70.54;101610.59;6054629;23;20044;-70
2022/07/22 10:31:50;;;;;;;6.50;6.10;;;;;;;21.08;70.17;101612.56;6026067;23;20014;-70
2022/07/22 10:34:16;;;;;;;6.25;5.85;;;;;;;20.95;70.34;101607.38;6022638;23;20034;-71
2022/07/22 10:36:43;;;;;;;6.20;5.80;;;;;;;21.16;69.17;101607.44;6003048;23;20344;-71
2022/07/22 10:39:12;;;;;;;6.00;5.70;;;;;;;21.46;67.60;101622.75;6052076;23;20364;-71
2022/07/22 10:41:44;;;;;;;6.80;6.30;;;;;;;21.11;70.58;101610.47;6058302;23;20038;-71
2022/07/22 10:44:56;;;;;;;6.45;6.05;;;;;;;21.11;72.41;101599.81;6059690;23;20135;-71
2022/07/22 10:48:00;;;;;;;6.43;6.13;;;;;;;20.78;71.28;101631.91;5953963;24;20078;-71
2022/07/22 10:50:37;;;;;;;7.72;7.32;;;;;;;20.80;72.05;101628.13;6073545;23;20483;-74
2022/07/22 10:53:06;;;;;;;7.13;6.57;;;;;;;20.48;73.31;101585.34;6055870;23;20054;-70
2022/07/22 10:55:33;;;;;;;7.25;6.85;;;;;;;21.10;71.46;101621.28;6079516;23;20024;-70
2022/07/22 10:58:00;;;;;;;6.57;6.10;;;;;;;21.27;69.46;101622.56;6054269;23;20026;-70
2022/07/22 11:00:27;;;;;;;7.45;7.05;;;;;;;21.35;68.86;101629.91;6069742;23;20288;-70
2022/07/22 11:02:53;;;;;;;6.90;6.50;;;;;;;21.29;69.23;101625.97;6077509;23;20020;-70
2022/07/22 11:05:28;;;;;;;6.88;6.40;;;;;;;21.50;67.20;101624.19;6074035;23;20443;-70
2022/07/22 11:07:55;;;;;;;6.50;6.10;;;;;;;21.68;66.39;101607.59;6080116;23;20021;-72
2022/07/22 11:10:21;;;;;;;7.70;7.28;;;;;;;22.00;65.70;101604.81;6077010;23;20045;-71
2022/07/22 11:12:49;;;;;;;9.98;6.70;;;;;;;21.46;66.04;101561.31;6064229;23;20415;-71
2022/07/22 11:15:16;;;;;;;6.40;6.00;;;;;;;21.50;67.31;101613.50;6079285;23;20336;-71
2022/07/22 11:17:43;;;;;;;6.32;5.95;;;;;;;21.88;66.29;101595.19;6062008;23;20580;-70
2022/07/22 11:20:11;;;;;;;6.97;6.57;;;;;;;22.45;64.50;101569.72;6075715;23;20025;-71
2022/07/22 11:22:38;;;;;;;6.50;6.10;;;;;;;22.80;62.72;101584.44;6046804;23;20014;-71